Rackwick, United Kingdom
Current Conditions -  °F | °C
As of 2:20 AM on Thursday 27 Nov 2014 (Local Time) from EGPA Reporting Station
Broken Clouds Broken Clouds  
Wind Chill: 45°   Ceiling: 3600
Heat Index: 48°   Visibility: 6mi
Dew Point: 43°   Wind: 8mph
Humidity: 82%   Direction: 140°SE
Pressure: 29.77"   Gusts: NA
Location:  58.87°N, 3.38°W
Report Text: EGPA 270220Z AUTO 14007KT 9999 FEW019/// BKN036/// 09/06 Q1008
Loading
Personal Weather Stations






























Interactive Weather Map New forecast layout! Learn more

10-Day Weather Forecast

Advertisements
Track Severe Weather on mobile